sensor_id;sensor_type;location;lat;lon;timestamp;P1;durP1;ratioP1;P2;durP2;ratioP2
33108;SDS011;19481;51.118;6.940;2022-11-14T00:01:14;10.40;;;6.85;;
33108;SDS011;19481;51.118;6.940;2022-11-14T00:06:15;15.48;;;7.30;;
33108;SDS011;19481;51.118;6.940;2022-11-14T00:11:17;14.50;;;6.78;;
33108;SDS011;19481;51.118;6.940;2022-11-14T00:16:20;10.60;;;6.22;;
33108;SDS011;19481;51.118;6.940;2022-11-14T00:21:21;9.05;;;6.35;;
33108;SDS011;19481;51.118;6.940;2022-11-14T00:26:23;11.98;;;6.70;;
33108;SDS011;19481;51.118;6.940;2022-11-14T00:31:26;11.68;;;7.00;;
33108;SDS011;19481;51.118;6.940;2022-11-14T00:36:28;10.40;;;6.07;;
33108;SDS011;19481;51.118;6.940;2022-11-14T00:41:29;10.18;;;6.07;;
33108;SDS011;19481;51.118;6.940;2022-11-14T00:46:32;11.55;;;5.47;;
33108;SDS011;19481;51.118;6.940;2022-11-14T00:51:34;9.80;;;5.72;;
33108;SDS011;19481;51.118;6.940;2022-11-14T00:56:35;10.32;;;5.20;;
33108;SDS011;19481;51.118;6.940;2022-11-14T01:01:38;8.85;;;5.55;;
33108;SDS011;19481;51.118;6.940;2022-11-14T01:06:40;12.52;;;5.93;;
33108;SDS011;19481;51.118;6.940;2022-11-14T01:11:42;12.68;;;5.70;;
33108;SDS011;19481;51.118;6.940;2022-11-14T01:16:45;9.27;;;5.35;;
33108;SDS011;19481;51.118;6.940;2022-11-14T01:21:46;10.02;;;5.38;;
33108;SDS011;19481;51.118;6.940;2022-11-14T01:26:48;8.65;;;4.90;;
33108;SDS011;19481;51.118;6.940;2022-11-14T01:31:51;9.43;;;5.07;;
33108;SDS011;19481;51.118;6.940;2022-11-14T01:36:52;7.22;;;4.65;;
33108;SDS011;19481;51.118;6.940;2022-11-14T01:41:54;7.85;;;4.18;;
33108;SDS011;19481;51.118;6.940;2022-11-14T01:46:57;6.40;;;3.92;;
33108;SDS011;19481;51.118;6.940;2022-11-14T01:52:00;6.90;;;4.07;;
33108;SDS011;19481;51.118;6.940;2022-11-14T01:57:04;9.43;;;4.07;;
33108;SDS011;19481;51.118;6.940;2022-11-14T02:02:11;5.93;;;3.75;;
33108;SDS011;19481;51.118;6.940;2022-11-14T02:07:16;7.32;;;4.07;;
33108;SDS011;19481;51.118;6.940;2022-11-14T02:12:19;6.43;;;3.78;;
33108;SDS011;19481;51.118;6.940;2022-11-14T02:17:23;7.78;;;4.38;;
33108;SDS011;19481;51.118;6.940;2022-11-14T02:22:26;4.95;;;3.83;;
33108;SDS011;19481;51.118;6.940;2022-11-14T02:27:29;5.75;;;4.20;;
33108;SDS011;19481;51.118;6.940;2022-11-14T02:32:32;4.43;;;3.38;;
33108;SDS011;19481;51.118;6.940;2022-11-14T02:37:36;5.88;;;3.92;;
33108;SDS011;19481;51.118;6.940;2022-11-14T02:42:37;5.90;;;3.42;;
33108;SDS011;19481;51.118;6.940;2022-11-14T02:47:39;5.40;;;3.88;;
33108;SDS011;19481;51.118;6.940;2022-11-14T02:52:42;5.88;;;3.75;;
33108;SDS011;19481;51.118;6.940;2022-11-14T02:57:45;5.63;;;4.20;;
33108;SDS011;19481;51.118;6.940;2022-11-14T03:02:47;4.82;;;3.63;;
33108;SDS011;19481;51.118;6.940;2022-11-14T03:07:52;6.45;;;4.35;;
33108;SDS011;19481;51.118;6.940;2022-11-14T03:12:54;4.47;;;3.55;;
33108;SDS011;19481;51.118;6.940;2022-11-14T03:17:56;8.18;;;3.55;;
33108;SDS011;19481;51.118;6.940;2022-11-14T03:22:59;7.53;;;3.70;;
33108;SDS011;19481;51.118;6.940;2022-11-14T03:28:01;6.55;;;3.15;;
33108;SDS011;19481;51.118;6.940;2022-11-14T03:33:02;4.05;;;3.60;;
33108;SDS011;19481;51.118;6.940;2022-11-14T03:38:05;5.00;;;3.80;;
33108;SDS011;19481;51.118;6.940;2022-11-14T03:43:07;6.00;;;3.28;;
33108;SDS011;19481;51.118;6.940;2022-11-14T03:48:09;7.85;;;3.30;;
33108;SDS011;19481;51.118;6.940;2022-11-14T03:53:12;5.22;;;3.58;;
33108;SDS011;19481;51.118;6.940;2022-11-14T03:58:13;3.88;;;2.95;;
33108;SDS011;19481;51.118;6.940;2022-11-14T04:03:15;4.10;;;3.25;;
33108;SDS011;19481;51.118;6.940;2022-11-14T04:08:18;5.72;;;3.25;;
33108;SDS011;19481;51.118;6.940;2022-11-14T04:13:19;4.30;;;3.17;;
33108;SDS011;19481;51.118;6.940;2022-11-14T04:18:21;3.47;;;2.83;;
33108;SDS011;19481;51.118;6.940;2022-11-14T04:23:24;5.53;;;3.50;;
33108;SDS011;19481;51.118;6.940;2022-11-14T04:28:26;4.88;;;3.50;;
33108;SDS011;19481;51.118;6.940;2022-11-14T04:33:27;3.67;;;2.75;;
33108;SDS011;19481;51.118;6.940;2022-11-14T04:38:31;5.85;;;3.00;;
33108;SDS011;19481;51.118;6.940;2022-11-14T04:43:32;7.68;;;3.05;;
33108;SDS011;19481;51.118;6.940;2022-11-14T04:48:34;3.58;;;2.75;;
33108;SDS011;19481;51.118;6.940;2022-11-14T04:53:37;5.13;;;2.88;;
33108;SDS011;19481;51.118;6.940;2022-11-14T04:58:39;6.03;;;2.90;;
33108;SDS011;19481;51.118;6.940;2022-11-14T05:03:40;3.85;;;3.05;;
33108;SDS011;19481;51.118;6.940;2022-11-14T05:08:43;3.85;;;2.58;;
33108;SDS011;19481;51.118;6.940;2022-11-14T05:13:45;4.28;;;2.90;;
33108;SDS011;19481;51.118;6.940;2022-11-14T05:18:47;2.90;;;2.60;;
33108;SDS011;19481;51.118;6.940;2022-11-14T05:23:50;3.88;;;2.97;;
33108;SDS011;19481;51.118;6.940;2022-11-14T05:28:51;3.83;;;2.88;;
33108;SDS011;19481;51.118;6.940;2022-11-14T05:33:53;3.97;;;3.13;;
33108;SDS011;19481;51.118;6.940;2022-11-14T05:38:56;4.93;;;3.50;;
33108;SDS011;19481;51.118;6.940;2022-11-14T05:43:57;4.03;;;2.95;;
33108;SDS011;19481;51.118;6.940;2022-11-14T05:48:59;3.22;;;2.78;;
33108;SDS011;19481;51.118;6.940;2022-11-14T05:54:02;3.90;;;3.13;;
33108;SDS011;19481;51.118;6.940;2022-11-14T05:59:04;3.38;;;2.95;;
33108;SDS011;19481;51.118;6.940;2022-11-14T06:04:06;4.20;;;3.20;;
33108;SDS011;19481;51.118;6.940;2022-11-14T06:09:09;5.45;;;3.30;;
33108;SDS011;19481;51.118;6.940;2022-11-14T06:14:10;7.25;;;3.20;;
33108;SDS011;19481;51.118;6.940;2022-11-14T06:19:12;5.18;;;3.25;;
33108;SDS011;19481;51.118;6.940;2022-11-14T06:24:15;3.78;;;2.92;;
33108;SDS011;19481;51.118;6.940;2022-11-14T06:29:17;6.20;;;4.25;;
33108;SDS011;19481;51.118;6.940;2022-11-14T06:34:18;5.93;;;3.92;;
33108;SDS011;19481;51.118;6.940;2022-11-14T06:39:21;5.10;;;3.40;;
33108;SDS011;19481;51.118;6.940;2022-11-14T06:44:23;4.40;;;3.55;;
33108;SDS011;19481;51.118;6.940;2022-11-14T06:49:24;10.23;;;5.97;;
33108;SDS011;19481;51.118;6.940;2022-11-14T06:54:28;5.55;;;3.85;;
33108;SDS011;19481;51.118;6.940;2022-11-14T06:59:29;5.68;;;4.05;;
33108;SDS011;19481;51.118;6.940;2022-11-14T07:04:31;17.33;;;8.27;;
33108;SDS011;19481;51.118;6.940;2022-11-14T07:09:34;11.75;;;6.97;;
33108;SDS011;19481;51.118;6.940;2022-11-14T07:14:35;7.30;;;5.05;;
33108;SDS011;19481;51.118;6.940;2022-11-14T07:19:37;7.28;;;4.60;;
33108;SDS011;19481;51.118;6.940;2022-11-14T07:24:40;7.15;;;4.63;;
33108;SDS011;19481;51.118;6.940;2022-11-14T07:29:42;7.78;;;4.90;;
33108;SDS011;19481;51.118;6.940;2022-11-14T07:34:43;6.93;;;4.72;;
33108;SDS011;19481;51.118;6.940;2022-11-14T07:39:46;7.72;;;5.38;;
33108;SDS011;19481;51.118;6.940;2022-11-14T07:44:48;10.52;;;5.15;;
33108;SDS011;19481;51.118;6.940;2022-11-14T07:49:49;9.48;;;4.97;;
33108;SDS011;19481;51.118;6.940;2022-11-14T07:54:52;8.55;;;4.75;;
33108;SDS011;19481;51.118;6.940;2022-11-14T07:59:54;15.25;;;5.22;;
33108;SDS011;19481;51.118;6.940;2022-11-14T08:04:55;15.80;;;7.68;;
33108;SDS011;19481;51.118;6.940;2022-11-14T08:09:59;12.75;;;6.60;;
33108;SDS011;19481;51.118;6.940;2022-11-14T08:15:00;12.98;;;7.07;;
33108;SDS011;19481;51.118;6.940;2022-11-14T08:20:02;12.43;;;6.93;;
33108;SDS011;19481;51.118;6.940;2022-11-14T08:25:06;11.30;;;6.38;;
33108;SDS011;19481;51.118;6.940;2022-11-14T08:30:08;13.95;;;7.63;;
33108;SDS011;19481;51.118;6.940;2022-11-14T08:35:10;13.93;;;7.35;;
33108;SDS011;19481;51.118;6.940;2022-11-14T08:40:14;15.52;;;8.35;;
33108;SDS011;19481;51.118;6.940;2022-11-14T08:45:16;15.50;;;8.13;;
33108;SDS011;19481;51.118;6.940;2022-11-14T08:50:17;14.00;;;7.95;;
33108;SDS011;19481;51.118;6.940;2022-11-14T08:55:20;14.02;;;8.30;;
33108;SDS011;19481;51.118;6.940;2022-11-14T09:00:22;16.20;;;8.05;;
33108;SDS011;19481;51.118;6.940;2022-11-14T09:05:24;15.50;;;8.13;;
33108;SDS011;19481;51.118;6.940;2022-11-14T09:10:27;16.30;;;8.75;;
33108;SDS011;19481;51.118;6.940;2022-11-14T09:15:29;13.75;;;7.72;;
33108;SDS011;19481;51.118;6.940;2022-11-14T09:20:32;13.52;;;6.95;;
33108;SDS011;19481;51.118;6.940;2022-11-14T09:25:35;14.95;;;8.45;;
33108;SDS011;19481;51.118;6.940;2022-11-14T09:30:37;14.52;;;7.40;;
33108;SDS011;19481;51.118;6.940;2022-11-14T09:35:40;14.57;;;7.22;;
33108;SDS011;19481;51.118;6.940;2022-11-14T09:40:46;10.40;;;6.75;;
33108;SDS011;19481;51.118;6.940;2022-11-14T09:45:52;13.38;;;6.70;;
33108;SDS011;19481;51.118;6.940;2022-11-14T09:50:58;12.30;;;6.80;;
33108;SDS011;19481;51.118;6.940;2022-11-14T09:56:09;12.02;;;7.63;;
33108;SDS011;19481;51.118;6.940;2022-11-14T10:01:14;12.02;;;6.75;;
33108;SDS011;19481;51.118;6.940;2022-11-14T10:06:24;13.55;;;8.00;;
33108;SDS011;19481;51.118;6.940;2022-11-14T10:11:32;16.85;;;7.15;;
33108;SDS011;19481;51.118;6.940;2022-11-14T10:16:39;12.35;;;7.95;;
33108;SDS011;19481;51.118;6.940;2022-11-14T10:21:53;14.45;;;7.80;;
33108;SDS011;19481;51.118;6.940;2022-11-14T10:27:06;12.77;;;5.90;;
33108;SDS011;19481;51.118;6.940;2022-11-14T10:32:17;14.60;;;7.20;;
33108;SDS011;19481;51.118;6.940;2022-11-14T10:37:28;10.63;;;6.90;;
33108;SDS011;19481;51.118;6.940;2022-11-14T10:42:35;14.35;;;7.15;;
33108;SDS011;19481;51.118;6.940;2022-11-14T10:47:39;11.77;;;6.97;;
33108;SDS011;19481;51.118;6.940;2022-11-14T10:52:46;12.43;;;6.65;;
33108;SDS011;19481;51.118;6.940;2022-11-14T10:57:49;11.60;;;7.35;;
33108;SDS011;19481;51.118;6.940;2022-11-14T11:02:51;12.77;;;6.70;;
33108;SDS011;19481;51.118;6.940;2022-11-14T11:07:56;11.52;;;7.05;;
33108;SDS011;19481;51.118;6.940;2022-11-14T11:13:28;12.80;;;7.38;;
33108;SDS011;19481;51.118;6.940;2022-11-14T11:18:32;11.75;;;7.28;;
33108;SDS011;19481;51.118;6.940;2022-11-14T11:23:36;12.20;;;7.22;;
33108;SDS011;19481;51.118;6.940;2022-11-14T11:29:03;14.10;;;7.72;;
33108;SDS011;19481;51.118;6.940;2022-11-14T11:34:06;11.25;;;7.38;;
33108;SDS011;19481;51.118;6.940;2022-11-14T11:39:21;16.27;;;8.75;;
33108;SDS011;19481;51.118;6.940;2022-11-14T11:44:29;14.20;;;7.25;;
33108;SDS011;19481;51.118;6.940;2022-11-14T11:49:38;12.90;;;7.47;;
33108;SDS011;19481;51.118;6.940;2022-11-14T11:54:49;10.77;;;6.60;;
33108;SDS011;19481;51.118;6.940;2022-11-14T12:00:00;14.75;;;7.60;;
33108;SDS011;19481;51.118;6.940;2022-11-14T12:05:09;12.45;;;7.10;;
33108;SDS011;19481;51.118;6.940;2022-11-14T12:10:16;11.57;;;6.80;;
33108;SDS011;19481;51.118;6.940;2022-11-14T12:15:24;13.93;;;7.72;;
33108;SDS011;19481;51.118;6.940;2022-11-14T12:20:44;15.70;;;7.50;;
33108;SDS011;19481;51.118;6.940;2022-11-14T12:25:57;12.85;;;7.70;;
33108;SDS011;19481;51.118;6.940;2022-11-14T12:31:10;12.68;;;7.45;;
33108;SDS011;19481;51.118;6.940;2022-11-14T12:36:15;14.32;;;7.63;;
33108;SDS011;19481;51.118;6.940;2022-11-14T12:41:19;14.98;;;8.43;;
33108;SDS011;19481;51.118;6.940;2022-11-14T12:46:27;16.35;;;7.90;;
33108;SDS011;19481;51.118;6.940;2022-11-14T12:51:52;16.13;;;7.68;;
33108;SDS011;19481;51.118;6.940;2022-11-14T12:56:58;17.27;;;8.07;;
33108;SDS011;19481;51.118;6.940;2022-11-14T13:02:14;13.07;;;8.10;;
33108;SDS011;19481;51.118;6.940;2022-11-14T13:07:27;13.10;;;7.72;;
33108;SDS011;19481;51.118;6.940;2022-11-14T13:12:38;15.75;;;8.52;;
33108;SDS011;19481;51.118;6.940;2022-11-14T13:18:02;18.73;;;8.73;;
33108;SDS011;19481;51.118;6.940;2022-11-14T13:28:55;13.13;;;7.13;;
33108;SDS011;19481;51.118;6.940;2022-11-14T13:34:00;13.20;;;7.18;;
33108;SDS011;19481;51.118;6.940;2022-11-14T13:39:25;11.93;;;7.68;;
33108;SDS011;19481;51.118;6.940;2022-11-14T13:44:44;10.90;;;6.88;;
33108;SDS011;19481;51.118;6.940;2022-11-14T13:50:08;13.13;;;7.28;;
33108;SDS011;19481;51.118;6.940;2022-11-14T13:55:20;13.10;;;7.20;;
33108;SDS011;19481;51.118;6.940;2022-11-14T14:00:23;13.25;;;7.43;;
33108;SDS011;19481;51.118;6.940;2022-11-14T14:05:27;11.85;;;7.53;;
33108;SDS011;19481;51.118;6.940;2022-11-14T14:10:39;12.50;;;6.63;;
33108;SDS011;19481;51.118;6.940;2022-11-14T14:15:43;12.27;;;7.68;;
33108;SDS011;19481;51.118;6.940;2022-11-14T14:20:52;13.05;;;7.90;;
33108;SDS011;19481;51.118;6.940;2022-11-14T14:26:02;13.95;;;8.25;;
33108;SDS011;19481;51.118;6.940;2022-11-14T14:31:15;14.93;;;7.57;;
33108;SDS011;19481;51.118;6.940;2022-11-14T14:36:20;14.05;;;7.85;;
33108;SDS011;19481;51.118;6.940;2022-11-14T14:41:29;15.93;;;7.85;;
33108;SDS011;19481;51.118;6.940;2022-11-14T14:46:32;12.90;;;8.00;;
33108;SDS011;19481;51.118;6.940;2022-11-14T14:51:34;14.30;;;8.50;;
33108;SDS011;19481;51.118;6.940;2022-11-14T14:56:39;11.18;;;7.28;;
33108;SDS011;19481;51.118;6.940;2022-11-14T15:01:54;15.55;;;8.10;;
33108;SDS011;19481;51.118;6.940;2022-11-14T15:06:57;13.70;;;7.30;;
33108;SDS011;19481;51.118;6.940;2022-11-14T15:12:00;15.35;;;8.35;;
33108;SDS011;19481;51.118;6.940;2022-11-14T15:17:02;17.48;;;8.27;;
33108;SDS011;19481;51.118;6.940;2022-11-14T15:22:17;12.20;;;8.07;;
33108;SDS011;19481;51.118;6.940;2022-11-14T15:27:24;12.70;;;8.02;;
33108;SDS011;19481;51.118;6.940;2022-11-14T15:32:26;14.15;;;7.93;;
33108;SDS011;19481;51.118;6.940;2022-11-14T15:37:28;13.13;;;8.27;;
33108;SDS011;19481;51.118;6.940;2022-11-14T15:42:33;13.40;;;8.27;;
33108;SDS011;19481;51.118;6.940;2022-11-14T15:47:35;13.25;;;7.95;;
33108;SDS011;19481;51.118;6.940;2022-11-14T15:52:39;15.18;;;8.52;;
33108;SDS011;19481;51.118;6.940;2022-11-14T15:57:49;14.48;;;8.25;;
33108;SDS011;19481;51.118;6.940;2022-11-14T16:02:52;14.27;;;7.82;;
33108;SDS011;19481;51.118;6.940;2022-11-14T16:07:56;11.15;;;7.03;;
33108;SDS011;19481;51.118;6.940;2022-11-14T16:12:59;10.80;;;7.70;;
33108;SDS011;19481;51.118;6.940;2022-11-14T16:18:02;12.18;;;7.43;;
33108;SDS011;19481;51.118;6.940;2022-11-14T16:23:04;13.88;;;7.82;;
33108;SDS011;19481;51.118;6.940;2022-11-14T16:28:07;12.77;;;7.40;;
33108;SDS011;19481;51.118;6.940;2022-11-14T16:33:10;12.80;;;8.05;;
33108;SDS011;19481;51.118;6.940;2022-11-14T16:38:11;9.75;;;6.75;;
33108;SDS011;19481;51.118;6.940;2022-11-14T16:43:15;14.93;;;7.32;;
33108;SDS011;19481;51.118;6.940;2022-11-14T16:48:16;12.15;;;7.93;;
33108;SDS011;19481;51.118;6.940;2022-11-14T16:53:18;11.10;;;7.05;;
33108;SDS011;19481;51.118;6.940;2022-11-14T16:58:21;10.65;;;7.53;;
33108;SDS011;19481;51.118;6.940;2022-11-14T17:03:23;9.63;;;7.35;;
33108;SDS011;19481;51.118;6.940;2022-11-14T17:08:24;12.23;;;7.82;;
33108;SDS011;19481;51.118;6.940;2022-11-14T17:13:28;13.63;;;8.02;;
33108;SDS011;19481;51.118;6.940;2022-11-14T17:18:30;12.25;;;7.78;;
33108;SDS011;19481;51.118;6.940;2022-11-14T17:23:32;14.98;;;7.80;;
33108;SDS011;19481;51.118;6.940;2022-11-14T17:28:35;10.98;;;7.78;;
33108;SDS011;19481;51.118;6.940;2022-11-14T17:33:37;11.90;;;7.07;;
33108;SDS011;19481;51.118;6.940;2022-11-14T17:38:39;10.23;;;7.05;;
33108;SDS011;19481;51.118;6.940;2022-11-14T17:43:42;15.73;;;7.65;;
33108;SDS011;19481;51.118;6.940;2022-11-14T17:48:44;13.07;;;7.88;;
33108;SDS011;19481;51.118;6.940;2022-11-14T17:53:45;9.57;;;7.55;;
33108;SDS011;19481;51.118;6.940;2022-11-14T17:58:49;11.75;;;7.80;;
33108;SDS011;19481;51.118;6.940;2022-11-14T18:03:52;11.88;;;7.78;;
33108;SDS011;19481;51.118;6.940;2022-11-14T18:08:54;11.57;;;7.70;;
33108;SDS011;19481;51.118;6.940;2022-11-14T18:13:57;13.25;;;8.27;;
33108;SDS011;19481;51.118;6.940;2022-11-14T18:18:59;13.00;;;8.52;;
33108;SDS011;19481;51.118;6.940;2022-11-14T18:24:00;12.10;;;8.20;;
33108;SDS011;19481;51.118;6.940;2022-11-14T18:29:03;10.70;;;7.13;;
33108;SDS011;19481;51.118;6.940;2022-11-14T18:34:05;8.80;;;6.57;;
33108;SDS011;19481;51.118;6.940;2022-11-14T18:39:06;10.63;;;6.65;;
33108;SDS011;19481;51.118;6.940;2022-11-14T18:44:09;10.13;;;6.50;;
33108;SDS011;19481;51.118;6.940;2022-11-14T18:49:11;10.98;;;6.75;;
33108;SDS011;19481;51.118;6.940;2022-11-14T18:54:13;9.70;;;6.10;;
33108;SDS011;19481;51.118;6.940;2022-11-14T18:59:18;14.77;;;6.88;;
33108;SDS011;19481;51.118;6.940;2022-11-14T19:04:19;8.82;;;6.30;;
33108;SDS011;19481;51.118;6.940;2022-11-14T19:09:22;9.68;;;6.85;;
33108;SDS011;19481;51.118;6.940;2022-11-14T19:14:25;11.38;;;6.35;;
33108;SDS011;19481;51.118;6.940;2022-11-14T19:19:27;14.45;;;7.80;;
33108;SDS011;19481;51.118;6.940;2022-11-14T19:24:28;11.55;;;7.43;;
33108;SDS011;19481;51.118;6.940;2022-11-14T19:29:31;10.27;;;6.82;;
33108;SDS011;19481;51.118;6.940;2022-11-14T19:34:33;9.57;;;6.43;;
33108;SDS011;19481;51.118;6.940;2022-11-14T19:39:35;12.45;;;6.82;;
33108;SDS011;19481;51.118;6.940;2022-11-14T19:44:38;8.65;;;6.25;;
33108;SDS011;19481;51.118;6.940;2022-11-14T19:49:39;9.77;;;6.47;;
33108;SDS011;19481;51.118;6.940;2022-11-14T19:54:41;10.98;;;7.05;;
33108;SDS011;19481;51.118;6.940;2022-11-14T19:59:44;8.98;;;6.15;;
33108;SDS011;19481;51.118;6.940;2022-11-14T20:04:46;11.80;;;6.35;;
33108;SDS011;19481;51.118;6.940;2022-11-14T20:09:49;9.50;;;6.10;;
33108;SDS011;19481;51.118;6.940;2022-11-14T20:14:52;9.18;;;6.22;;
33108;SDS011;19481;51.118;6.940;2022-11-14T20:19:53;9.85;;;5.85;;
33108;SDS011;19481;51.118;6.940;2022-11-14T20:24:55;9.93;;;6.30;;
33108;SDS011;19481;51.118;6.940;2022-11-14T20:29:58;9.23;;;6.38;;
33108;SDS011;19481;51.118;6.940;2022-11-14T20:34:59;10.32;;;7.15;;
33108;SDS011;19481;51.118;6.940;2022-11-14T20:40:02;14.73;;;6.32;;
33108;SDS011;19481;51.118;6.940;2022-11-14T20:45:06;10.05;;;6.40;;
33108;SDS011;19481;51.118;6.940;2022-11-14T20:50:08;8.65;;;6.30;;
33108;SDS011;19481;51.118;6.940;2022-11-14T20:55:10;11.02;;;5.75;;
33108;SDS011;19481;51.118;6.940;2022-11-14T21:00:13;8.27;;;5.72;;
33108;SDS011;19481;51.118;6.940;2022-11-14T21:05:15;9.65;;;5.30;;
33108;SDS011;19481;51.118;6.940;2022-11-14T21:10:17;9.82;;;5.90;;
33108;SDS011;19481;51.118;6.940;2022-11-14T21:15:38;7.20;;;5.00;;
33108;SDS011;19481;51.118;6.940;2022-11-14T21:20:39;7.75;;;5.70;;
33108;SDS011;19481;51.118;6.940;2022-11-14T21:25:41;8.43;;;5.53;;
33108;SDS011;19481;51.118;6.940;2022-11-14T21:30:44;7.45;;;5.15;;
33108;SDS011;19481;51.118;6.940;2022-11-14T21:35:46;15.00;;;8.95;;
33108;SDS011;19481;51.118;6.940;2022-11-14T21:40:51;7.70;;;5.68;;
33108;SDS011;19481;51.118;6.940;2022-11-14T21:45:55;8.20;;;5.75;;
33108;SDS011;19481;51.118;6.940;2022-11-14T21:51:02;9.40;;;5.32;;
33108;SDS011;19481;51.118;6.940;2022-11-14T21:56:06;7.70;;;5.50;;
33108;SDS011;19481;51.118;6.940;2022-11-14T22:01:10;7.35;;;5.13;;
33108;SDS011;19481;51.118;6.940;2022-11-14T22:06:14;6.82;;;5.30;;
33108;SDS011;19481;51.118;6.940;2022-11-14T22:11:15;8.27;;;4.70;;
33108;SDS011;19481;51.118;6.940;2022-11-14T22:16:19;6.68;;;5.38;;
33108;SDS011;19481;51.118;6.940;2022-11-14T22:21:20;9.45;;;5.50;;
33108;SDS011;19481;51.118;6.940;2022-11-14T22:26:22;8.63;;;5.03;;
33108;SDS011;19481;51.118;6.940;2022-11-14T22:31:25;10.40;;;6.38;;
33108;SDS011;19481;51.118;6.940;2022-11-14T22:36:28;6.93;;;5.63;;
33108;SDS011;19481;51.118;6.940;2022-11-14T22:41:30;6.95;;;5.28;;
33108;SDS011;19481;51.118;6.940;2022-11-14T22:46:34;9.05;;;5.05;;
33108;SDS011;19481;51.118;6.940;2022-11-14T22:51:35;7.72;;;4.88;;
33108;SDS011;19481;51.118;6.940;2022-11-14T22:56:37;6.78;;;5.07;;
33108;SDS011;19481;51.118;6.940;2022-11-14T23:01:41;6.03;;;4.32;;
33108;SDS011;19481;51.118;6.940;2022-11-14T23:06:42;6.80;;;4.55;;
33108;SDS011;19481;51.118;6.940;2022-11-14T23:11:44;5.82;;;4.60;;
33108;SDS011;19481;51.118;6.940;2022-11-14T23:16:48;7.07;;;3.85;;
33108;SDS011;19481;51.118;6.940;2022-11-14T23:21:49;4.32;;;3.88;;
33108;SDS011;19481;51.118;6.940;2022-11-14T23:26:54;8.15;;;4.30;;
33108;SDS011;19481;51.118;6.940;2022-11-14T23:31:57;9.60;;;4.13;;
33108;SDS011;19481;51.118;6.940;2022-11-14T23:36:58;6.22;;;4.22;;
33108;SDS011;19481;51.118;6.940;2022-11-14T23:42:00;6.75;;;4.18;;
33108;SDS011;19481;51.118;6.940;2022-11-14T23:47:03;5.38;;;3.70;;
33108;SDS011;19481;51.118;6.940;2022-11-14T23:52:05;5.80;;;4.00;;
33108;SDS011;19481;51.118;6.940;2022-11-14T23:57:07;7.22;;;4.32;;
